createdAt,value
2017-07-07T00:01:16.724Z,19
2017-07-07T00:02:35.392Z,19
2017-07-07T00:03:54.111Z,19
2017-07-07T00:05:12.773Z,19
2017-07-07T00:06:31.455Z,19
2017-07-07T00:07:50.183Z,18.9
2017-07-07T00:09:08.943Z,19
2017-07-07T00:10:27.612Z,19
2017-07-07T00:11:46.362Z,19
2017-07-07T00:13:05.027Z,19
2017-07-07T00:14:23.735Z,18.9
2017-07-07T00:15:42.435Z,19
2017-07-07T00:17:01.104Z,19
2017-07-07T00:18:19.771Z,19
2017-07-07T00:19:38.436Z,19
2017-07-07T00:20:57.151Z,19
2017-07-07T00:22:15.847Z,19.1
2017-07-07T00:23:34.555Z,19.2
2017-07-07T00:24:53.274Z,19.2
2017-07-07T00:26:12.001Z,19.2
2017-07-07T00:27:30.706Z,19.2
2017-07-07T00:28:49.407Z,19.2
2017-07-07T00:30:08.073Z,19.2
2017-07-07T00:31:26.746Z,19.1
2017-07-07T00:32:45.421Z,19.1
2017-07-07T00:34:04.128Z,19
2017-07-07T00:35:22.803Z,18.9
2017-07-07T00:36:41.470Z,18.9
2017-07-07T00:38:00.133Z,18.8
2017-07-07T00:39:18.810Z,18.7
2017-07-07T00:40:37.526Z,18.7
2017-07-07T00:41:56.246Z,18.6
2017-07-07T00:43:14.996Z,18.6
2017-07-07T00:44:33.706Z,18.6
2017-07-07T00:45:52.456Z,18.6
2017-07-07T00:47:11.127Z,18.5
2017-07-07T00:48:29.809Z,18.5
2017-07-07T00:49:48.474Z,18.5
2017-07-07T00:51:07.152Z,18.5
2017-07-07T00:52:25.833Z,18.5
2017-07-07T00:53:44.568Z,18.5
2017-07-07T00:55:03.234Z,18.5
2017-07-07T00:56:21.896Z,18.6
2017-07-07T00:57:40.566Z,18.6
2017-07-07T00:58:59.248Z,18.6
2017-07-07T01:00:17.921Z,18.6
2017-07-07T01:01:36.590Z,18.7
2017-07-07T01:02:55.313Z,18.7
2017-07-07T01:04:14.017Z,18.6
2017-07-07T01:05:32.692Z,18.6
2017-07-07T01:06:51.357Z,18.5
2017-07-07T01:08:10.023Z,18.4
2017-07-07T01:09:28.726Z,18.4
2017-07-07T01:10:47.428Z,18.3
2017-07-07T01:12:06.098Z,18.4
2017-07-07T01:13:24.766Z,18.4
2017-07-07T01:14:43.457Z,18.4
2017-07-07T01:16:02.132Z,18.3
2017-07-07T01:17:20.851Z,18.3
2017-07-07T01:18:39.560Z,18.2
2017-07-07T01:19:58.229Z,18.2
2017-07-07T01:21:16.899Z,18.1
2017-07-07T01:22:35.587Z,18.1
2017-07-07T01:23:54.272Z,18.1
2017-07-07T01:25:12.961Z,18
2017-07-07T01:26:31.623Z,18.1
2017-07-07T01:27:50.325Z,18.1
2017-07-07T01:29:09.013Z,18.1
2017-07-07T01:30:27.710Z,18.2
2017-07-07T01:31:46.383Z,18.3
2017-07-07T01:33:05.074Z,18.4
2017-07-07T01:34:23.813Z,18.4
2017-07-07T01:35:42.508Z,18.4
2017-07-07T01:37:01.190Z,18.4
2017-07-07T01:38:19.850Z,18.4
2017-07-07T01:39:38.573Z,18.5
2017-07-07T01:40:57.243Z,18.5
2017-07-07T01:42:15.934Z,18.5
2017-07-07T01:43:34.599Z,18.6
2017-07-07T01:44:53.303Z,18.8
2017-07-07T01:46:11.991Z,18.9
2017-07-07T01:47:30.656Z,19.2
2017-07-07T01:48:49.325Z,19.4
2017-07-07T01:50:08.007Z,19.5
2017-07-07T01:51:26.720Z,19.6
2017-07-07T01:52:45.424Z,19.6
2017-07-07T01:54:04.159Z,19.7
2017-07-07T01:55:22.860Z,19.7
2017-07-07T01:56:41.582Z,19.7
2017-07-07T01:58:00.270Z,19.7
2017-07-07T01:59:18.965Z,19.7
2017-07-07T02:00:37.642Z,19.6
2017-07-07T02:01:56.356Z,19.6
2017-07-07T02:03:15.072Z,19.5
2017-07-07T02:04:33.773Z,19.4
2017-07-07T02:05:52.453Z,19.4
2017-07-07T02:07:11.175Z,19.4
2017-07-07T02:08:29.843Z,19.3
2017-07-07T02:09:48.558Z,19.3
2017-07-07T02:11:07.229Z,19.3
2017-07-07T02:12:25.971Z,19.2
2017-07-07T02:13:44.638Z,19.2
2017-07-07T02:15:03.361Z,19.2
2017-07-07T02:16:22.054Z,19.2
2017-07-07T02:17:40.779Z,19.1
2017-07-07T02:18:59.461Z,19.1
2017-07-07T02:20:18.124Z,19
2017-07-07T02:21:36.800Z,19
2017-07-07T02:22:55.478Z,19
2017-07-07T02:24:14.165Z,18.9
2017-07-07T02:25:32.835Z,18.9
2017-07-07T02:26:51.556Z,18.9
2017-07-07T02:28:10.232Z,18.9
2017-07-07T02:29:28.924Z,18.9
2017-07-07T02:30:47.598Z,18.8
2017-07-07T02:32:06.268Z,18.8
2017-07-07T02:33:24.970Z,18.8
2017-07-07T02:34:43.684Z,18.8
2017-07-07T02:36:02.403Z,18.8
2017-07-07T02:37:21.090Z,18.7
2017-07-07T02:38:39.763Z,18.7
2017-07-07T02:39:58.464Z,18.7
2017-07-07T02:41:17.139Z,18.6
2017-07-07T02:42:35.800Z,18.6
2017-07-07T02:43:54.467Z,18.6
2017-07-07T02:45:13.133Z,18.5
2017-07-07T02:46:31.798Z,18.5
2017-07-07T02:47:50.505Z,18.5
2017-07-07T02:49:09.206Z,18.4
2017-07-07T02:50:27.872Z,18.4
2017-07-07T02:51:46.585Z,18.4
2017-07-07T02:53:05.307Z,18.4
2017-07-07T02:54:24.021Z,18.4
2017-07-07T02:55:42.690Z,18.4
2017-07-07T02:57:01.360Z,18.4
2017-07-07T02:58:20.078Z,18.4
2017-07-07T02:59:38.769Z,18.4
2017-07-07T03:00:57.442Z,18.4
2017-07-07T03:02:16.113Z,18.4
2017-07-07T03:03:34.781Z,18.3
2017-07-07T03:04:53.468Z,18.3
2017-07-07T03:06:12.152Z,18.3
2017-07-07T03:07:30.815Z,18.3
2017-07-07T03:08:49.493Z,18.3
2017-07-07T03:10:08.201Z,18.3
2017-07-07T03:11:26.881Z,18.2
2017-07-07T03:12:45.583Z,18.2
2017-07-07T03:14:04.258Z,18.2
2017-07-07T03:15:22.975Z,18.1
2017-07-07T03:16:41.642Z,18
2017-07-07T03:18:00.346Z,18
2017-07-07T03:19:19.043Z,17.9
2017-07-07T03:20:37.752Z,17.9
2017-07-07T03:21:56.473Z,17.8
2017-07-07T03:23:15.140Z,17.8
2017-07-07T03:24:33.837Z,17.7
2017-07-07T03:25:52.566Z,17.7
2017-07-07T03:27:11.249Z,17.6
2017-07-07T03:28:29.923Z,17.5
2017-07-07T03:29:48.590Z,17.4
2017-07-07T03:31:07.331Z,17.4
2017-07-07T03:32:25.999Z,17.4
2017-07-07T03:33:44.674Z,17.4
2017-07-07T03:35:03.350Z,17.4
2017-07-07T03:36:22.039Z,17.4
2017-07-07T03:37:40.701Z,17.4
2017-07-07T03:38:59.417Z,17.4
2017-07-07T03:40:18.112Z,17.4
2017-07-07T03:41:36.805Z,17.4
2017-07-07T03:42:55.517Z,17.4
2017-07-07T03:44:14.194Z,17.4
2017-07-07T03:45:32.860Z,17.4
2017-07-07T03:46:51.573Z,17.3
2017-07-07T03:48:10.295Z,17.3
2017-07-07T03:49:28.989Z,17.3
2017-07-07T03:50:47.663Z,17.3
2017-07-07T03:52:06.356Z,17.3
2017-07-07T03:53:25.027Z,17.3
2017-07-07T03:54:43.698Z,17.2
2017-07-07T03:56:02.446Z,17.2
2017-07-07T03:57:21.118Z,17.2
2017-07-07T03:58:39.805Z,17.1
2017-07-07T03:59:58.476Z,17.1
2017-07-07T04:01:17.152Z,17.1
2017-07-07T04:02:35.844Z,17.1
2017-07-07T04:03:54.562Z,17.1
2017-07-07T04:05:13.265Z,17.1
2017-07-07T04:06:31.927Z,17.1
2017-07-07T04:07:50.637Z,17.1
2017-07-07T04:09:09.310Z,17.1
2017-07-07T04:10:28.005Z,17.1
2017-07-07T04:11:46.671Z,17.1
2017-07-07T04:13:05.343Z,17.1
2017-07-07T04:14:24.038Z,17.1
2017-07-07T04:15:42.751Z,17.1
2017-07-07T04:17:01.411Z,17.1
2017-07-07T04:18:20.095Z,17.1
2017-07-07T04:19:38.825Z,17.1
2017-07-07T04:20:57.501Z,17.2
2017-07-07T04:22:16.224Z,17.2
2017-07-07T04:23:34.939Z,17.1
2017-07-07T04:24:53.603Z,17.1
2017-07-07T04:26:12.323Z,17.2
2017-07-07T04:27:30.995Z,17.2
2017-07-07T04:28:49.700Z,17.2
2017-07-07T04:30:08.414Z,17.3
2017-07-07T04:31:27.107Z,17.4
2017-07-07T04:32:45.785Z,17.4
2017-07-07T04:34:04.484Z,17.4
2017-07-07T04:35:23.156Z,17.5
2017-07-07T04:36:41.827Z,17.5
2017-07-07T04:38:00.551Z,17.5
2017-07-07T04:39:19.242Z,17.5
2017-07-07T04:40:37.947Z,17.6
2017-07-07T04:41:56.604Z,17.5
2017-07-07T04:43:15.325Z,17.5
2017-07-07T04:44:34.065Z,17.5
2017-07-07T04:45:52.755Z,17.4
2017-07-07T04:47:11.419Z,17.4
2017-07-07T04:48:30.086Z,17.4
2017-07-07T04:49:48.803Z,17.4
2017-07-07T04:51:07.473Z,17.4
2017-07-07T04:52:26.186Z,17.4
2017-07-07T04:53:44.853Z,17.5
2017-07-07T04:55:03.592Z,17.5
2017-07-07T04:56:22.318Z,17.6
2017-07-07T04:57:40.988Z,17.6
2017-07-07T04:58:59.650Z,17.6
2017-07-07T05:00:18.317Z,17.5
2017-07-07T05:01:37.029Z,17.5
2017-07-07T05:02:55.695Z,17.5
2017-07-07T05:04:14.398Z,17.4
2017-07-07T05:05:33.121Z,17.4
2017-07-07T05:06:51.799Z,17.3
2017-07-07T05:08:10.476Z,17.3
2017-07-07T05:09:29.156Z,17.3
2017-07-07T05:10:47.855Z,17.3
2017-07-07T05:12:06.556Z,17.3
2017-07-07T05:13:25.221Z,17.4
2017-07-07T05:14:43.908Z,17.4
2017-07-07T05:16:02.572Z,17.5
2017-07-07T05:17:21.245Z,17.5
2017-07-07T05:18:39.917Z,17.6
2017-07-07T05:19:58.610Z,17.6
2017-07-07T05:21:17.333Z,17.6
2017-07-07T05:22:36.015Z,17.6
2017-07-07T05:23:54.680Z,17.5
2017-07-07T05:25:13.348Z,17.5
2017-07-07T05:26:32.047Z,17.5
2017-07-07T05:27:50.715Z,17.5
2017-07-07T05:29:09.387Z,17.6
2017-07-07T05:30:28.066Z,17.7
2017-07-07T05:31:46.796Z,17.7
2017-07-07T05:33:05.470Z,17.8
2017-07-07T05:34:24.156Z,17.8
2017-07-07T05:35:42.819Z,17.8
2017-07-07T05:37:01.510Z,17.8
2017-07-07T05:38:20.177Z,17.7
2017-07-07T05:39:38.864Z,17.7
2017-07-07T05:40:57.620Z,17.7
2017-07-07T05:42:16.354Z,17.8
2017-07-07T05:43:35.027Z,17.8
2017-07-07T05:44:53.685Z,17.9
2017-07-07T05:46:12.395Z,18
2017-07-07T05:47:31.070Z,18.1
2017-07-07T05:48:49.787Z,18.2
2017-07-07T05:50:08.457Z,18.3
2017-07-07T05:51:27.121Z,18.4
2017-07-07T05:52:45.805Z,18.5
2017-07-07T05:54:04.521Z,18.6
2017-07-07T05:55:23.202Z,18.6
2017-07-07T05:56:41.875Z,18.6
2017-07-07T05:58:00.583Z,18.7
2017-07-07T05:59:19.254Z,18.8
2017-07-07T06:00:37.919Z,18.9
2017-07-07T06:01:56.586Z,19
2017-07-07T06:03:15.298Z,19
2017-07-07T06:04:33.996Z,19.1
2017-07-07T06:05:52.664Z,19.2
2017-07-07T06:07:11.332Z,19.3
2017-07-07T06:08:30.055Z,19.4
2017-07-07T06:09:48.727Z,19.5
2017-07-07T06:11:07.423Z,19.7
2017-07-07T06:12:26.091Z,19.9
2017-07-07T06:13:44.774Z,20
2017-07-07T06:15:03.478Z,20.2
2017-07-07T06:16:22.188Z,20.4
2017-07-07T06:17:40.893Z,20.6
2017-07-07T06:18:59.567Z,20.9
2017-07-07T06:20:18.238Z,21.3
2017-07-07T06:21:36.904Z,21.6
2017-07-07T06:22:55.626Z,22.1
2017-07-07T06:24:14.333Z,22.3
2017-07-07T06:25:33.049Z,22.7
2017-07-07T06:26:51.719Z,23
2017-07-07T06:28:10.423Z,23
2017-07-07T06:29:29.144Z,23
2017-07-07T06:30:47.842Z,22.8
2017-07-07T06:32:06.556Z,22.5
2017-07-07T06:33:25.283Z,22.5
2017-07-07T06:34:44.032Z,22.2
2017-07-07T06:36:02.753Z,21.8
2017-07-07T06:37:21.445Z,21.4
2017-07-07T06:38:40.109Z,21.1
2017-07-07T06:39:58.801Z,20.7
2017-07-07T06:41:17.483Z,20.3
2017-07-07T06:42:36.182Z,19.9
2017-07-07T06:43:54.867Z,19.7
2017-07-07T06:45:13.604Z,19.5
2017-07-07T06:46:32.326Z,19.4
2017-07-07T06:47:51.002Z,19.3
2017-07-07T06:49:09.672Z,19.5
2017-07-07T06:50:28.354Z,19.7
2017-07-07T06:51:47.084Z,19.8
2017-07-07T06:53:05.795Z,20.1
2017-07-07T06:54:24.461Z,20.3
2017-07-07T06:55:43.153Z,20.4
2017-07-07T06:57:01.830Z,20.5
2017-07-07T06:58:20.493Z,20.7
2017-07-07T06:59:39.171Z,20.8
2017-07-07T07:00:57.846Z,20.9
2017-07-07T07:02:16.562Z,21.1
2017-07-07T07:03:35.278Z,21.2
2017-07-07T07:04:53.971Z,21.4
2017-07-07T07:06:12.633Z,21.5
2017-07-07T07:07:31.297Z,21.5
2017-07-07T07:08:50.040Z,21.5
2017-07-07T07:10:08.719Z,21.3
2017-07-07T07:11:27.471Z,21.2
2017-07-07T07:12:46.148Z,21
2017-07-07T07:14:04.814Z,20.9
2017-07-07T07:15:23.481Z,20.8
2017-07-07T07:16:42.144Z,20.7
2017-07-07T07:18:00.809Z,20.7
2017-07-07T07:19:19.490Z,20.8
2017-07-07T07:20:38.156Z,20.7
2017-07-07T07:21:56.827Z,20.6
2017-07-07T07:23:15.512Z,20.6
2017-07-07T07:24:34.226Z,20.6
2017-07-07T07:25:52.902Z,20.6
2017-07-07T07:27:11.576Z,20.7
2017-07-07T07:28:30.293Z,20.8
2017-07-07T07:29:49.004Z,20.9
2017-07-07T07:31:07.673Z,20.9
2017-07-07T07:32:26.340Z,20.8
2017-07-07T07:33:45.062Z,20.8
2017-07-07T07:35:03.743Z,20.8
2017-07-07T07:36:22.427Z,20.9
2017-07-07T07:37:41.107Z,20.9
2017-07-07T07:38:59.781Z,20.9
2017-07-07T07:40:18.514Z,20.9
2017-07-07T07:41:37.187Z,20.9
2017-07-07T07:42:55.861Z,21
2017-07-07T07:44:14.558Z,21
2017-07-07T07:45:33.245Z,21.2
2017-07-07T07:46:51.942Z,21.3
2017-07-07T07:48:10.651Z,21.4
2017-07-07T07:49:29.339Z,21.5
2017-07-07T07:50:48.038Z,21.6
2017-07-07T07:52:06.710Z,21.6
2017-07-07T07:53:25.378Z,21.6
2017-07-07T07:54:44.117Z,21.7
2017-07-07T07:56:02.774Z,21.8
2017-07-07T07:57:21.440Z,21.9
2017-07-07T07:58:40.138Z,21.9
2017-07-07T07:59:58.821Z,21.8
2017-07-07T08:01:17.511Z,21.8
2017-07-07T08:02:36.207Z,21.8
2017-07-07T08:03:54.872Z,21.9
2017-07-07T08:05:13.583Z,21.9
2017-07-07T08:06:32.332Z,21.8
2017-07-07T08:07:51.061Z,21.8
2017-07-07T08:09:09.735Z,21.8
2017-07-07T08:10:28.460Z,21.9
2017-07-07T08:11:47.190Z,21.8
2017-07-07T08:13:05.856Z,21.9
2017-07-07T08:14:24.568Z,21.9
2017-07-07T08:15:43.276Z,21.9
2017-07-07T08:17:02.009Z,22
2017-07-07T08:18:20.699Z,22
2017-07-07T08:19:39.421Z,22
2017-07-07T08:20:58.195Z,21.8
2017-07-07T08:22:16.895Z,21.7
2017-07-07T08:23:35.572Z,21.7
2017-07-07T08:24:54.233Z,21.8
2017-07-07T08:26:12.918Z,21.8
2017-07-07T08:27:31.604Z,22
2017-07-07T08:28:50.324Z,22.1
2017-07-07T08:30:09.014Z,22.3
2017-07-07T08:31:27.729Z,22.2
2017-07-07T08:32:46.427Z,22.1
2017-07-07T08:34:05.091Z,22.2
2017-07-07T08:35:23.772Z,22.3
2017-07-07T08:36:42.445Z,22.4
2017-07-07T08:38:01.199Z,22.6
2017-07-07T08:39:19.935Z,22.7
2017-07-07T08:40:38.606Z,22.8
2017-07-07T08:41:57.327Z,22.8
2017-07-07T08:43:16.022Z,22.9
2017-07-07T08:44:34.691Z,22.9
2017-07-07T08:45:53.367Z,22.9
2017-07-07T08:47:12.090Z,22.9
2017-07-07T08:48:30.817Z,22.8
2017-07-07T08:49:49.509Z,22.9
2017-07-07T08:51:08.187Z,23
2017-07-07T08:52:26.853Z,23
2017-07-07T08:53:45.594Z,23.1
2017-07-07T08:55:04.278Z,22.9
2017-07-07T08:56:22.962Z,22.9
2017-07-07T08:57:41.656Z,23
2017-07-07T08:59:00.340Z,23.1
2017-07-07T09:00:19.032Z,23.2
2017-07-07T09:01:37.693Z,23.2
2017-07-07T09:02:56.410Z,23.2
2017-07-07T09:04:15.095Z,23.2
2017-07-07T09:05:33.774Z,23.2
2017-07-07T09:06:52.500Z,23.3
2017-07-07T09:08:11.218Z,23.3
2017-07-07T09:09:29.930Z,23.4
2017-07-07T09:10:48.594Z,23.4
2017-07-07T09:12:07.322Z,23.4
2017-07-07T09:13:25.994Z,23.4
2017-07-07T09:14:44.707Z,23.5
2017-07-07T09:16:03.376Z,23.7
2017-07-07T09:17:22.038Z,23.7
2017-07-07T09:18:40.706Z,23.8
2017-07-07T09:19:59.418Z,23.9
2017-07-07T09:21:18.085Z,24
2017-07-07T09:22:36.763Z,24
2017-07-07T09:23:55.430Z,24
2017-07-07T09:25:14.157Z,23.9
2017-07-07T09:26:32.824Z,23.9
2017-07-07T09:27:51.492Z,24
2017-07-07T09:29:10.201Z,24
2017-07-07T09:30:28.965Z,23.9
2017-07-07T09:31:47.654Z,23.8
2017-07-07T09:33:06.342Z,23.8
2017-07-07T09:34:25.015Z,23.8
2017-07-07T09:35:43.702Z,23.9
2017-07-07T09:37:02.421Z,24
2017-07-07T09:38:21.093Z,24.1
2017-07-07T09:39:39.767Z,24.1
2017-07-07T09:40:58.456Z,24.1
2017-07-07T09:42:17.124Z,24.2
2017-07-07T09:43:35.789Z,24.1
2017-07-07T09:44:54.463Z,24
2017-07-07T09:46:13.154Z,23.9
2017-07-07T09:47:31.847Z,23.9
2017-07-07T09:48:50.560Z,24
2017-07-07T09:50:09.234Z,24.1
2017-07-07T09:51:27.924Z,24.3
2017-07-07T09:52:46.650Z,24.3
2017-07-07T09:54:05.376Z,24.4
2017-07-07T09:55:24.069Z,24.4
2017-07-07T09:56:42.775Z,24.4
2017-07-07T09:58:01.445Z,24.4
2017-07-07T09:59:20.121Z,24.4
2017-07-07T10:00:38.798Z,24.3
2017-07-07T10:01:57.472Z,24.4
2017-07-07T10:03:16.194Z,24.4
2017-07-07T10:04:34.865Z,24.5
2017-07-07T10:05:53.565Z,24.5
2017-07-07T10:07:12.245Z,24.5
2017-07-07T10:08:30.908Z,24.7
2017-07-07T10:09:49.577Z,24.7
2017-07-07T10:11:08.252Z,24.8
2017-07-07T10:12:26.950Z,24.8
2017-07-07T10:13:45.643Z,24.7
2017-07-07T10:15:04.339Z,24.6
2017-07-07T10:16:23.055Z,24.6
2017-07-07T10:17:41.746Z,24.7
2017-07-07T10:19:00.419Z,24.8
2017-07-07T10:20:19.112Z,24.8
2017-07-07T10:21:37.816Z,24.8
2017-07-07T10:22:56.491Z,24.9
2017-07-07T10:24:15.167Z,25
2017-07-07T10:25:33.857Z,25.1
2017-07-07T10:26:52.566Z,25
2017-07-07T10:28:11.256Z,25.1
2017-07-07T10:29:29.955Z,25.1
2017-07-07T10:30:48.663Z,25.1
2017-07-07T10:32:07.397Z,25.2
2017-07-07T10:33:26.080Z,25.3
2017-07-07T10:34:44.802Z,25.3
2017-07-07T10:36:03.524Z,25.4
2017-07-07T10:37:22.198Z,25.4
2017-07-07T10:38:40.934Z,25.5
2017-07-07T10:39:59.602Z,25.5
2017-07-07T10:41:18.275Z,25.6
2017-07-07T10:42:37.044Z,25.6
2017-07-07T10:43:55.734Z,25.6
2017-07-07T10:45:14.398Z,25.6
2017-07-07T10:46:33.063Z,25.7
2017-07-07T10:47:51.752Z,25.9
2017-07-07T10:49:10.432Z,26.1
2017-07-07T10:50:29.168Z,26.1
2017-07-07T10:51:47.839Z,26.2
2017-07-07T10:53:06.561Z,26.3
2017-07-07T10:54:25.257Z,26.5
2017-07-07T10:55:44.000Z,26.6
2017-07-07T10:57:02.665Z,26.8
2017-07-07T10:58:21.340Z,26.8
2017-07-07T10:59:40.040Z,26.8
2017-07-07T11:00:58.773Z,26.9
2017-07-07T11:02:17.472Z,27.1
2017-07-07T11:03:36.140Z,27.3
2017-07-07T11:04:54.817Z,27.3
2017-07-07T11:06:13.485Z,27.3
2017-07-07T11:07:32.196Z,27.1
2017-07-07T11:08:50.858Z,27
2017-07-07T11:10:09.563Z,27
2017-07-07T11:11:28.275Z,27.1
2017-07-07T11:12:46.992Z,27.2
2017-07-07T11:14:05.662Z,27.4
2017-07-07T11:15:24.449Z,27.7
2017-07-07T11:16:43.110Z,27.7
2017-07-07T11:18:01.772Z,28.1
2017-07-07T11:19:20.457Z,28.2
2017-07-07T11:20:39.188Z,28
2017-07-07T11:21:57.906Z,27.7
2017-07-07T11:23:16.572Z,27.7
2017-07-07T11:24:35.239Z,27.7
2017-07-07T11:25:53.953Z,27.7
2017-07-07T11:27:12.619Z,28
2017-07-07T11:28:31.396Z,28.5
2017-07-07T11:29:50.073Z,29.3
2017-07-07T11:31:08.767Z,29.7
2017-07-07T11:32:27.448Z,30
2017-07-07T11:33:46.115Z,29.7
2017-07-07T11:35:04.779Z,29.3
2017-07-07T11:36:23.465Z,29
2017-07-07T11:37:42.135Z,28.7
2017-07-07T11:39:00.804Z,28.6
2017-07-07T11:40:19.481Z,28.7
2017-07-07T11:41:38.187Z,29.1
2017-07-07T11:42:56.894Z,29.4
2017-07-07T11:44:15.566Z,29.8
2017-07-07T11:45:34.234Z,30.1
2017-07-07T11:46:52.954Z,30
2017-07-07T11:48:11.617Z,30
2017-07-07T11:49:30.326Z,29.5
2017-07-07T11:50:49.026Z,29.3
2017-07-07T11:52:07.716Z,29.5
2017-07-07T11:53:26.384Z,30
2017-07-07T11:54:45.111Z,30.3
2017-07-07T11:56:03.805Z,30.5
2017-07-07T11:57:22.488Z,31.2
2017-07-07T11:58:41.156Z,32.5
2017-07-07T11:59:59.825Z,34
2017-07-07T12:01:18.502Z,34.5
2017-07-07T12:02:37.192Z,34.9
2017-07-07T12:03:55.860Z,35.3
2017-07-07T12:05:14.572Z,35.7
2017-07-07T12:06:33.239Z,35.7
2017-07-07T12:07:51.974Z,35.3
2017-07-07T12:09:10.667Z,34.9
2017-07-07T12:10:29.383Z,34.6
2017-07-07T12:11:48.054Z,34.3
2017-07-07T12:13:06.719Z,34.7
2017-07-07T12:14:25.385Z,35.3
2017-07-07T12:15:44.079Z,35.4
2017-07-07T12:17:02.759Z,35.4
2017-07-07T12:18:21.472Z,35.6
2017-07-07T12:19:40.190Z,35.8
2017-07-07T12:20:58.920Z,36
2017-07-07T12:22:17.585Z,35.6
2017-07-07T12:23:36.315Z,35.3
2017-07-07T12:24:54.982Z,35.3
2017-07-07T12:26:13.702Z,35.6
2017-07-07T12:27:32.409Z,35.9
2017-07-07T12:28:51.100Z,36.1
2017-07-07T12:30:09.825Z,35.9
2017-07-07T12:31:28.555Z,36.1
2017-07-07T12:32:47.230Z,36.2
2017-07-07T12:34:05.958Z,36.4
2017-07-07T12:35:24.632Z,36.7
2017-07-07T12:36:43.355Z,36.5
2017-07-07T12:38:02.022Z,36.6
2017-07-07T12:39:20.689Z,36.7
2017-07-07T12:40:39.363Z,36.7
2017-07-07T12:41:58.033Z,36.7
2017-07-07T12:43:16.701Z,36.4
2017-07-07T12:44:35.429Z,35.7
2017-07-07T12:45:54.120Z,35.3
2017-07-07T12:47:12.847Z,34.9
2017-07-07T12:48:31.573Z,34.9
2017-07-07T12:49:50.276Z,34.7
2017-07-07T12:51:08.974Z,34.5
2017-07-07T12:52:27.699Z,34.3
2017-07-07T12:53:46.365Z,34.3
2017-07-07T12:55:05.030Z,34.4
2017-07-07T12:56:23.693Z,34.9
2017-07-07T12:57:42.398Z,35.3
2017-07-07T12:59:01.065Z,35.4
2017-07-07T13:00:19.753Z,35.8
2017-07-07T13:01:38.471Z,36.1
2017-07-07T13:02:57.164Z,36.3
2017-07-07T13:04:15.850Z,36.5
2017-07-07T13:05:34.610Z,36.7
2017-07-07T13:06:53.308Z,36.9
2017-07-07T13:08:12.033Z,37
2017-07-07T13:09:30.733Z,37
2017-07-07T13:10:49.406Z,37.2
2017-07-07T13:12:08.076Z,37.4
2017-07-07T13:13:26.753Z,37.3
2017-07-07T13:14:45.467Z,37.3
2017-07-07T13:16:04.164Z,37
2017-07-07T13:17:22.839Z,36.6
2017-07-07T13:18:41.566Z,36.7
2017-07-07T13:20:00.291Z,36.7
2017-07-07T13:21:19.004Z,36.2
2017-07-07T13:22:37.669Z,35.9
2017-07-07T13:23:56.381Z,35.6
2017-07-07T13:25:15.052Z,35.5
2017-07-07T13:26:33.782Z,35.7
2017-07-07T13:27:52.466Z,35.9
2017-07-07T13:29:11.156Z,35.8
2017-07-07T13:30:29.832Z,35.7
2017-07-07T13:31:48.516Z,35.4
2017-07-07T13:33:07.187Z,35.3
2017-07-07T13:34:25.856Z,35.6
2017-07-07T13:35:44.563Z,35.7
2017-07-07T13:37:03.265Z,35.7
2017-07-07T13:38:21.928Z,36.1
2017-07-07T13:39:40.593Z,35.9
2017-07-07T13:40:59.270Z,35.6
2017-07-07T13:42:17.943Z,35.6
2017-07-07T13:43:36.638Z,36.2
2017-07-07T13:44:55.325Z,36.6
2017-07-07T13:46:14.018Z,36.6
2017-07-07T13:47:32.682Z,35.8
2017-07-07T13:48:51.363Z,35.7
2017-07-07T13:50:10.052Z,35.7
2017-07-07T13:51:28.713Z,35.8
2017-07-07T13:52:47.500Z,35.8
2017-07-07T13:54:06.168Z,36.1
2017-07-07T13:55:24.837Z,36
2017-07-07T13:56:43.558Z,35.7
2017-07-07T13:58:02.233Z,35.6
2017-07-07T13:59:20.950Z,35.4
2017-07-07T14:00:39.623Z,35.4
2017-07-07T14:01:58.315Z,35.2
2017-07-07T14:03:17.001Z,35.7
2017-07-07T14:04:35.672Z,36
2017-07-07T14:05:54.336Z,36.2
2017-07-07T14:07:13.016Z,36.1
2017-07-07T14:08:31.703Z,36.2
2017-07-07T14:09:50.416Z,35.9
2017-07-07T14:11:09.113Z,35.4
2017-07-07T14:12:27.774Z,35.2
2017-07-07T14:13:46.484Z,35.2
2017-07-07T14:15:05.198Z,35.1
2017-07-07T14:16:23.896Z,35.1
2017-07-07T14:17:42.603Z,35
2017-07-07T14:19:01.320Z,34.8
2017-07-07T14:20:19.987Z,34.6
2017-07-07T14:21:38.700Z,34.5
2017-07-07T14:22:57.399Z,34.3
2017-07-07T14:24:16.086Z,34.3
2017-07-07T14:25:34.798Z,34
2017-07-07T14:26:53.458Z,33.3
2017-07-07T14:28:12.127Z,32.6
2017-07-07T14:29:30.789Z,32.3
2017-07-07T14:30:49.460Z,31.9
2017-07-07T14:32:08.123Z,31.6
2017-07-07T14:33:26.792Z,31.3
2017-07-07T14:34:45.475Z,30.9
2017-07-07T14:36:04.162Z,30.6
2017-07-07T14:37:22.837Z,30.5
2017-07-07T14:38:41.554Z,30.4
2017-07-07T14:40:00.300Z,30.4
2017-07-07T14:41:18.994Z,30.3
2017-07-07T14:42:37.658Z,30.3
2017-07-07T14:43:56.345Z,30.3
2017-07-07T14:45:15.047Z,30.3
2017-07-07T14:46:33.731Z,30.3
2017-07-07T14:47:52.439Z,30.3
2017-07-07T14:49:11.107Z,30.2
2017-07-07T14:50:29.821Z,30.2
2017-07-07T14:51:48.490Z,30
2017-07-07T14:53:07.186Z,30.1
2017-07-07T14:54:25.850Z,29.9
2017-07-07T14:55:44.594Z,29.7
2017-07-07T14:57:03.306Z,29.5
2017-07-07T14:58:21.973Z,29.4
2017-07-07T14:59:40.637Z,29.3
2017-07-07T15:00:59.314Z,29.2
2017-07-07T15:02:17.998Z,28.9
2017-07-07T15:03:36.718Z,28.7
2017-07-07T15:04:55.389Z,28.6
2017-07-07T15:06:14.103Z,28.4
2017-07-07T15:07:32.884Z,28.4
2017-07-07T15:08:51.572Z,28.4
2017-07-07T15:10:10.242Z,28.3
2017-07-07T15:11:28.954Z,28.2
2017-07-07T15:12:47.621Z,28.1
2017-07-07T15:14:06.327Z,27.9
2017-07-07T15:15:25.048Z,27.8
2017-07-07T15:16:43.722Z,27.8
2017-07-07T15:18:02.472Z,27.8
2017-07-07T15:19:21.139Z,27.6
2017-07-07T15:20:39.819Z,27.6
2017-07-07T15:21:58.493Z,27.6
2017-07-07T15:23:17.163Z,27.6
2017-07-07T15:24:35.832Z,27.6
2017-07-07T15:25:54.557Z,27.6
2017-07-07T15:27:13.248Z,27.5
2017-07-07T15:28:31.949Z,27.4
2017-07-07T15:29:50.615Z,27.2
2017-07-07T15:31:09.324Z,27.1
2017-07-07T15:32:28.046Z,26.9
2017-07-07T15:33:46.768Z,26.9
2017-07-07T15:35:05.485Z,26.9
2017-07-07T15:36:24.162Z,26.9
2017-07-07T15:37:42.830Z,26.8
2017-07-07T15:39:01.558Z,26.8
2017-07-07T15:40:20.277Z,26.8
2017-07-07T15:41:38.971Z,26.9
2017-07-07T15:42:57.651Z,26.9
2017-07-07T15:44:16.341Z,27
2017-07-07T15:45:35.007Z,27.1
2017-07-07T15:46:53.718Z,27.2
2017-07-07T15:48:12.423Z,27.3
2017-07-07T15:49:31.088Z,27.5
2017-07-07T15:50:49.762Z,27.7
2017-07-07T15:52:08.433Z,27.7
2017-07-07T15:53:27.119Z,27.7
2017-07-07T15:54:45.784Z,27.7
2017-07-07T15:56:04.513Z,27.7
2017-07-07T15:57:23.237Z,27.6
2017-07-07T15:58:41.959Z,27.5
2017-07-07T16:00:00.631Z,27.4
2017-07-07T16:01:19.308Z,27.5
2017-07-07T16:02:37.978Z,27.6
2017-07-07T16:03:56.648Z,27.7
2017-07-07T16:05:15.325Z,28
2017-07-07T16:06:34.077Z,28.3
2017-07-07T16:07:52.766Z,28.8
2017-07-07T16:09:11.482Z,29.9
2017-07-07T16:10:30.155Z,31.4
2017-07-07T16:11:48.840Z,32
2017-07-07T16:13:07.560Z,32.3
2017-07-07T16:14:26.263Z,32.5
2017-07-07T16:15:44.927Z,32.6
2017-07-07T16:17:03.589Z,32.5
2017-07-07T16:18:22.315Z,31.5
2017-07-07T16:19:40.980Z,30.8
2017-07-07T16:20:59.700Z,30.3
2017-07-07T16:22:18.365Z,30.2
2017-07-07T16:23:37.029Z,30.1
2017-07-07T16:24:55.701Z,29.7
2017-07-07T16:26:14.374Z,29.7
2017-07-07T16:27:33.048Z,29.4
2017-07-07T16:28:51.712Z,29.2
2017-07-07T16:30:10.393Z,28.8
2017-07-07T16:31:29.130Z,28.7
2017-07-07T16:32:47.838Z,28.4
2017-07-07T16:34:06.560Z,28.1
2017-07-07T16:35:25.286Z,27.9
2017-07-07T16:36:43.981Z,27.6
2017-07-07T16:38:02.653Z,27.4
2017-07-07T16:39:21.329Z,27.2
2017-07-07T16:40:40.048Z,27.1
2017-07-07T16:41:58.716Z,26.8
2017-07-07T16:43:17.449Z,26.7
2017-07-07T16:44:36.111Z,26.4
2017-07-07T16:45:54.806Z,26.3
2017-07-07T16:47:13.503Z,26.3
2017-07-07T16:48:32.178Z,26.4
2017-07-07T16:49:50.848Z,26.4
2017-07-07T16:51:09.560Z,26.3
2017-07-07T16:52:28.222Z,26.2
2017-07-07T16:53:46.895Z,26.1
2017-07-07T16:55:05.604Z,26
2017-07-07T16:56:24.325Z,25.9
2017-07-07T16:57:43.018Z,25.9
2017-07-07T16:59:01.696Z,25.8
2017-07-07T17:00:20.417Z,25.8
2017-07-07T17:01:39.133Z,25.9
2017-07-07T17:02:57.857Z,26.1
2017-07-07T17:04:16.560Z,26.3
2017-07-07T17:05:35.270Z,26.6
2017-07-07T17:06:53.967Z,27
2017-07-07T17:08:12.632Z,27.8
2017-07-07T17:09:31.311Z,28.5
2017-07-07T17:10:50.032Z,28.6
2017-07-07T17:12:08.708Z,28.9
2017-07-07T17:13:27.453Z,28.6
2017-07-07T17:14:46.130Z,28.2
2017-07-07T17:16:04.846Z,27.9
2017-07-07T17:17:23.581Z,28
2017-07-07T17:18:42.303Z,27.9
2017-07-07T17:20:01.016Z,28.6
2017-07-07T17:21:19.696Z,29.8
2017-07-07T17:22:38.358Z,32.4
2017-07-07T17:23:57.064Z,34.4
2017-07-07T17:25:15.770Z,34.6
2017-07-07T17:26:34.449Z,34.6
2017-07-07T17:27:53.167Z,34.2
2017-07-07T17:29:11.858Z,32.5
2017-07-07T17:30:30.556Z,31.2
2017-07-07T17:31:49.241Z,31.3
2017-07-07T17:33:07.916Z,31.7
2017-07-07T17:34:26.619Z,31